LiveATC.Net - Listen to live air traffic control over the Internet!


ICAO: LBLS  IATA:   Airport: Lesnovo Airfield
City: Lesnovo
Country: Bulgaria   Continent: Europe
LBSF METAR Weather: LBSF 181530Z 03005KT 360V070 9999 SCT060 26/11 Q1013 NOSIG
LBLS Flight Activity (FlightAware)

LBLS Tower/FIC
Feed Status: DOWN
Last heard on: 2019-07-18 04:08:39 (0 days 12 hours 0 minutes ago)
LBLS Tower/FIC Audio Archives
FacilityFrequency
Lesnovo FIC130.600
Lesnovo Tower122.250

NOTICE

Unauthorized use prohibited. See LiveATC.net Terms of Service


Find LiveATC Audio Streams


Airport/ARTCC Code

Frequency Search
(e.g., 124.400, 128.75)
Site-wide search
 


Browse LiveATC Feeds
Top 50 LiveATC Feeds
LiveATC Feed Map
Bad Weather Areas

LiveATC FAQ
Offer LiveATC feed
Contact LiveATC.net
Press Inquiries

LiveATC on iPhone
LiveATC on Android

Windows Phone
Windows 8/10

LiveATC Mobile
(Mobile browser)

ATC Audio Archives
Interesting Recordings

LiveATC Forums


Home Page
About LiveATC.net
Make a Donation
Terms of Use
Privacy Policy

Canadian Air Freqs

AIRMETs/SIGMETs

FAA Airport Status
Nat'l Airspace Status
Arrival Demand Charts


Server Software By:
Icecast.org
Liquidsoap